Time;durP1;ratioP1;P1;durP2;ratioP2;P2;SDS_P1;SDS_P2;PMS_P1;PMS_P2;Temp;Humidity;BMP_temperature;BMP_pressure;BME280_temperature;BME280_humidity;BME280_pressure;Samples;Min_cycle;Max_cycle;Signal;HPM_P1;HPM_P2
2022/11/15 00:00:51;;;;;;;4.22;3.83;;;;;;;6.10;100.00;98183.09;15292126;19;20026;-77
2022/11/15 00:06:38;;;;;;;4.30;3.90;;;;;;;6.07;100.00;98170.00;15292960;19;20010;-76
2022/11/15 00:12:25;;;;;;;4.57;3.97;;;;;;;6.06;100.00;98162.97;15324547;19;30851;-77
2022/11/15 00:18:08;;;;;;;4.45;3.80;;;;;;;6.01;100.00;98157.22;15288884;19;20081;-76
2022/11/15 00:23:52;;;;;;;3.88;3.30;;;;;;;5.96;100.00;98162.06;15287006;19;20018;-76
2022/11/15 00:29:38;;;;;;;4.07;3.60;;;;;;;5.93;100.00;98162.38;15286015;19;20086;-78
2022/11/15 00:35:23;;;;;;;3.92;3.50;;;;;;;5.95;100.00;98179.09;15287166;19;20018;-77
2022/11/15 00:41:09;;;;;;;3.40;3.10;;;;;;;5.99;100.00;98175.19;15302860;19;20731;-76
2022/11/15 00:46:54;;;;;;;4.00;3.60;;;;;;;6.00;100.00;98179.59;15299351;19;20023;-77
2022/11/15 00:52:38;;;;;;;4.40;3.50;;;;;;;5.97;100.00;98186.03;15302414;19;20022;-78
2022/11/15 00:58:21;;;;;;;5.55;3.67;;;;;;;5.97;100.00;98179.81;15301467;19;20050;-77
2022/11/15 01:04:14;;;;;;;4.25;3.80;;;;;;;5.94;100.00;98190.81;15293078;19;20018;-77
2022/11/15 01:09:58;;;;;;;4.22;3.70;;;;;;;5.93;100.00;98176.56;15290454;19;20010;-78
2022/11/15 01:15:43;;;;;;;5.90;3.55;;;;;;;5.92;100.00;98172.22;15293913;19;20018;-77
2022/11/15 01:21:29;;;;;;;4.43;3.83;;;;;;;5.82;100.00;98166.00;15299149;19;20090;-79
2022/11/15 01:27:13;;;;;;;4.35;3.88;;;;;;;5.76;100.00;98164.72;15297169;19;20468;-78
2022/11/15 01:32:55;;;;;;;4.13;3.72;;;;;;;5.79;100.00;98150.22;15299455;19;20014;-78
2022/11/15 01:38:42;;;;;;;4.15;3.40;;;;;;;5.79;100.00;98153.75;15303136;19;20497;-79
2022/11/15 01:44:44;;;;;;;6.28;3.30;;;;;;;5.81;100.00;98158.97;15292810;19;20014;-78
2022/11/15 01:50:31;;;;;;;3.17;2.78;;;;;;;5.82;100.00;98157.97;15294586;19;20010;-78
2022/11/15 01:56:23;;;;;;;3.90;2.92;;;;;;;5.85;100.00;98145.19;15297682;19;20022;-78
2022/11/15 02:02:13;;;;;;;3.60;2.50;;;;;;;5.90;100.00;98142.09;15298786;19;20027;-79
2022/11/15 02:07:57;;;;;;;2.88;2.30;;;;;;;5.92;100.00;98137.44;15298004;19;20010;-78
2022/11/15 02:13:44;;;;;;;4.05;2.38;;;;;;;5.94;100.00;98124.78;15298436;19;20014;-79
2022/11/15 02:19:54;;;;;;;3.75;2.60;;;;;;;5.98;100.00;98128.03;15306230;19;20014;-79
2022/11/15 02:25:50;;;;;;;3.53;2.65;;;;;;;6.06;100.00;98130.88;15307499;19;20007;-78
2022/11/15 02:31:45;;;;;;;3.67;2.58;;;;;;;6.13;100.00;98124.00;15303718;19;20011;-77
2022/11/15 02:37:37;;;;;;;2.63;2.30;;;;;;;6.20;100.00;98121.59;15351817;19;20018;-82
2022/11/15 02:49:28;;;;;;;3.03;2.10;;;;;;;6.46;100.00;98100.47;15305882;19;20022;-80
2022/11/15 02:55:28;;;;;;;2.30;2.10;;;;;;;6.48;100.00;98095.81;15322892;19;20006;-81
2022/11/15 03:01:25;;;;;;;2.78;1.98;;;;;;;6.53;100.00;98099.88;15313970;19;20011;-79
2022/11/15 03:07:19;;;;;;;2.42;2.08;;;;;;;6.68;100.00;98090.41;15320123;19;20007;-79
2022/11/15 03:13:08;;;;;;;2.97;2.08;;;;;;;6.77;100.00;98091.38;15324090;19;20449;-79
2022/11/15 03:18:55;;;;;;;4.07;2.30;;;;;;;6.79;100.00;98084.06;15323487;19;20023;-78
2022/11/15 03:24:45;;;;;;;2.70;2.28;;;;;;;6.75;100.00;98088.00;15337248;19;20018;-79
2022/11/15 03:30:29;;;;;;;2.88;2.30;;;;;;;6.70;100.00;98079.56;15330159;19;20007;-77
2022/11/15 03:36:15;;;;;;;3.03;2.30;;;;;;;6.64;100.00;98075.66;15306659;19;20010;-78
2022/11/15 03:42:13;;;;;;;3.28;2.45;;;;;;;6.56;100.00;98076.38;15308056;19;20014;-80
2022/11/15 03:48:02;;;;;;;3.05;2.50;;;;;;;6.49;100.00;98069.88;15310787;19;20074;-79
2022/11/15 03:53:45;;;;;;;4.28;2.30;;;;;;;6.38;100.00;98070.03;15308448;19;20078;-77
2022/11/15 03:59:31;;;;;;;3.08;2.50;;;;;;;6.28;100.00;98070.06;15319567;19;20018;-79
2022/11/15 04:05:21;;;;;;;3.10;2.80;;;;;;;6.08;100.00;98063.88;15312484;19;20014;-78
2022/11/15 04:11:04;;;;;;;2.80;2.40;;;;;;;6.01;100.00;98060.94;15323545;19;20050;-78
2022/11/15 04:16:51;;;;;;;3.47;2.40;;;;;;;5.95;100.00;98061.44;15324858;19;20022;-77
2022/11/15 04:28:32;;;;;;;3.67;2.60;;;;;;;5.86;100.00;98058.66;15311652;19;20018;-77
2022/11/15 04:34:17;;;;;;;2.90;2.30;;;;;;;5.82;100.00;98065.25;15313754;19;20014;-77
2022/11/15 04:40:01;;;;;;;4.00;2.38;;;;;;;5.78;100.00;98057.66;15317200;19;20015;-77
2022/11/15 04:45:43;;;;;;;3.10;2.45;;;;;;;5.76;100.00;98055.13;15301588;19;20066;-77
2022/11/15 04:51:30;;;;;;;2.70;2.40;;;;;;;5.78;100.00;98045.16;15303430;19;20006;-77
2022/11/15 04:57:13;;;;;;;3.85;2.22;;;;;;;5.80;100.00;98051.19;15303393;19;20010;-77
2022/11/15 05:09:02;;;;;;;2.78;2.10;;;;;;;5.86;100.00;98039.94;15319191;19;20101;-77
2022/11/15 05:14:47;;;;;;;3.90;2.40;;;;;;;5.93;100.00;98031.38;15316629;19;20015;-76
2022/11/15 05:20:30;;;;;;;3.50;2.75;;;;;;;5.96;100.00;98044.44;15320258;19;20010;-77
2022/11/15 05:26:18;;;;;;;2.55;2.20;;;;;;;5.98;100.00;98037.13;15313809;19;20014;-77
2022/11/15 05:32:00;;;;;;;3.47;2.25;;;;;;;6.01;100.00;98026.19;15303218;19;20015;-76
2022/11/15 05:37:44;;;;;;;2.22;2.03;;;;;;;5.95;100.00;98032.03;15295689;19;20260;-77
2022/11/15 05:43:37;;;;;;;3.42;2.30;;;;;;;5.93;100.00;98028.69;15311387;19;20018;-78
2022/11/15 05:49:24;;;;;;;3.38;2.10;;;;;;;5.91;100.00;98030.66;15302265;19;20089;-77
2022/11/15 05:55:11;;;;;;;3.08;2.40;;;;;;;5.91;100.00;98030.66;15311449;19;20457;-78
2022/11/15 06:00:58;;;;;;;3.45;2.30;;;;;;;5.84;100.00;98035.72;15315118;19;20338;-77
2022/11/15 06:06:40;;;;;;;4.10;2.60;;;;;;;5.83;100.00;98028.69;15301002;19;20082;-76
2022/11/15 06:12:24;;;;;;;3.58;2.42;;;;;;;5.81;100.00;98028.84;15297821;19;20010;-77
2022/11/15 06:18:09;;;;;;;3.53;2.33;;;;;;;5.80;100.00;98027.16;15295502;19;20026;-77
2022/11/15 06:23:53;;;;;;;3.53;2.40;;;;;;;5.87;100.00;98038.13;15297050;19;20014;-78
2022/11/15 06:29:29;;;;;;;3.00;2.00;;;;;;;5.89;100.00;98033.44;15295501;19;20404;-77
2022/11/15 06:35:17;;;;;;;2.55;2.10;;;;;;;5.87;100.00;98038.13;15302028;19;20018;-78
2022/11/15 06:41:01;;;;;;;3.90;2.35;;;;;;;5.85;100.00;98038.25;15350305;19;20074;-78
2022/11/15 06:46:43;;;;;;;3.20;2.22;;;;;;;5.85;100.00;98035.56;15292962;19;20022;-77
2022/11/15 06:52:32;;;;;;;2.58;2.13;;;;;;;5.83;100.00;98042.88;15305869;19;20012;-77
2022/11/15 06:58:16;;;;;;;3.03;2.00;;;;;;;5.89;100.00;98046.00;15334504;19;20006;-77
2022/11/15 07:04:05;;;;;;;1.80;1.50;;;;;;;6.03;100.00;98050.94;15294593;19;20022;-77
2022/11/15 07:09:51;;;;;;;2.75;1.77;;;;;;;6.16;100.00;98047.97;15293580;19;20022;-76
2022/11/15 07:15:35;;;;;;;2.33;1.83;;;;;;;6.30;100.00;98046.66;15289014;19;20018;-76
2022/11/15 07:21:17;;;;;;;2.05;1.80;;;;;;;6.45;100.00;98034.53;15292181;19;20575;-76
2022/11/15 07:27:06;;;;;;;1.73;1.40;;;;;;;6.57;100.00;98029.03;15287915;19;20022;-76
2022/11/15 07:32:49;;;;;;;3.60;1.60;;;;;;;6.67;100.00;98032.50;15285842;19;20014;-76
2022/11/15 07:38:32;;;;;;;2.30;1.50;;;;;;;6.76;100.00;98030.78;15282801;19;20094;-76
2022/11/15 07:44:21;;;;;;;1.52;1.35;;;;;;;6.96;100.00;98026.19;15282931;19;20022;-76
2022/11/15 07:50:05;;;;;;;1.50;1.35;;;;;;;7.08;100.00;98032.19;15290570;19;20023;-77
2022/11/15 07:55:48;;;;;;;1.60;1.50;;;;;;;7.19;100.00;98025.81;15282616;19;20010;-78
2022/11/15 08:01:41;;;;;;;1.48;1.38;;;;;;;7.29;100.00;98023.91;15280477;19;20007;-76
2022/11/15 08:07:23;;;;;;;4.20;1.80;;;;;;;7.41;100.00;98019.16;15282577;19;20082;-78
2022/11/15 08:13:08;;;;;;;3.83;1.70;;;;;;;7.58;100.00;98022.88;15281912;19;20015;-77
2022/11/15 08:18:53;;;;;;;1.58;1.30;;;;;;;7.76;100.00;98008.63;15285367;19;20484;-78
2022/11/15 08:24:37;;;;;;;1.33;1.10;;;;;;;7.93;100.00;98002.44;15283516;19;20022;-77
2022/11/15 08:30:20;;;;;;;1.63;1.30;;;;;;;8.09;100.00;98000.84;15284553;19;20365;-77
2022/11/15 08:36:09;;;;;;;1.83;1.15;;;;;;;8.21;100.00;97996.91;15282085;19;20492;-77
2022/11/15 08:41:51;;;;;;;1.20;1.10;;;;;;;8.34;100.00;97988.47;15281019;19;20015;-77
2022/11/15 08:47:35;;;;;;;1.50;1.23;;;;;;;8.48;100.00;97989.75;15281432;19;20022;-78
2022/11/15 08:53:20;;;;;;;1.30;1.20;;;;;;;8.88;100.00;97980.22;15285858;19;20519;-78
2022/11/15 08:59:04;;;;;;;2.35;1.38;;;;;;;9.13;100.00;97979.47;15297270;19;20010;-78
2022/11/15 09:04:47;;;;;;;1.40;1.00;;;;;;;9.22;100.00;97971.28;15296655;19;20400;-77
2022/11/15 09:10:34;;;;;;;2.05;1.30;;;;;;;9.38;100.00;97966.94;15305336;19;20018;-78
2022/11/15 09:16:16;;;;;;;2.15;1.30;;;;;;;9.53;100.00;97959.91;15314875;19;20026;-79
2022/11/15 09:22:00;;;;;;;1.27;1.10;;;;;;;9.69;100.00;97955.56;15319264;19;20010;-79
2022/11/15 09:27:45;;;;;;;1.80;1.20;;;;;;;9.79;100.00;97950.84;15313596;19;20018;-79
2022/11/15 09:33:29;;;;;;;1.20;1.10;;;;;;;9.92;100.00;97944.13;15321490;19;20014;-79
2022/11/15 09:39:12;;;;;;;1.15;1.00;;;;;;;10.00;100.00;97944.13;15323345;19;20089;-79
2022/11/15 09:45:19;;;;;;;1.13;1.02;;;;;;;10.21;100.00;97942.75;15318424;19;20015;-79
2022/11/15 09:51:29;;;;;;;1.20;1.10;;;;;;;10.34;100.00;97937.66;15317042;19;20006;-79
2022/11/15 09:56:54;;;;;;;1.60;1.20;;;;;;;10.52;100.00;97944.75;15317919;19;20533;-79
2022/11/15 10:02:48;;;;;;;0.90;0.90;;;;;;;10.62;100.00;97935.44;15351089;19;20018;-79
2022/11/15 10:08:34;;;;;;;1.65;1.25;;;;;;;10.78;100.00;97917.53;15321918;19;20006;-78
2022/11/15 10:14:02;;;;;;;1.10;0.82;;;;;;;10.94;100.00;97914.75;15299897;19;20019;-79
2022/11/15 10:19:37;;;;;;;1.50;1.00;;;;;;;11.10;100.00;97911.16;14789898;19;9999710;-79
2022/11/15 10:25:26;;;;;;;1.02;0.82;;;;;;;11.24;100.00;97895.19;15302279;19;20407;-79
2022/11/15 10:30:53;;;;;;;0.90;0.90;;;;;;;11.41;100.00;97885.13;15303280;19;20091;-80
2022/11/15 10:36:32;;;;;;;1.10;1.00;;;;;;;11.54;100.00;97893.47;15296399;19;20342;-79
2022/11/15 10:41:57;;;;;;;1.40;0.98;;;;;;;11.71;100.00;97888.78;15299458;19;20084;-78
2022/11/15 10:47:35;;;;;;;2.03;0.90;;;;;;;11.85;100.00;97872.81;15294742;19;20036;-79
2022/11/15 10:53:11;;;;;;;2.90;1.00;;;;;;;12.04;100.00;97857.97;15287389;19;20094;-79
2022/11/15 10:58:39;;;;;;;1.02;0.90;;;;;;;12.13;100.00;97856.84;15299578;19;20029;-79
2022/11/15 11:04:09;;;;;;;0.90;0.80;;;;;;;12.22;100.00;97854.91;15296634;19;20021;-77
2022/11/15 11:09:38;;;;;;;1.27;0.90;;;;;;;12.32;100.00;97852.78;15298881;19;20426;-79
2022/11/15 11:15:03;;;;;;;2.03;0.90;;;;;;;12.45;100.00;97837.78;15309544;19;20694;-78
2022/11/15 11:20:32;;;;;;;2.70;0.95;;;;;;;12.56;100.00;97837.28;15318106;19;20021;-78
2022/11/15 11:26:25;;;;;;;1.53;0.80;;;;;;;12.68;100.00;97829.56;15295378;19;20022;-80
2022/11/15 11:31:57;;;;;;;1.23;1.00;;;;;;;12.75;100.00;97832.34;15298962;19;21099;-81
2022/11/15 11:37:30;;;;;;;1.42;1.10;;;;;;;12.84;100.00;97828.50;15296725;19;20018;-78
2022/11/15 11:43:05;;;;;;;2.88;1.00;;;;;;;12.88;100.00;97820.81;15302584;19;20030;-79
2022/11/15 11:48:40;;;;;;;1.45;1.10;;;;;;;13.00;100.00;97815.75;15297334;19;20014;-79
2022/11/15 11:54:14;;;;;;;1.83;1.00;;;;;;;13.09;100.00;97810.03;15300431;19;20027;-80
2022/11/15 11:59:50;;;;;;;5.82;1.20;;;;;;;13.20;100.00;97797.88;15292257;19;20033;-77
2022/11/15 12:05:36;;;;;;;1.77;1.08;;;;;;;13.30;100.00;97794.00;15295108;19;20050;-78
2022/11/15 12:11:11;;;;;;;0.90;0.85;;;;;;;13.41;100.00;97782.69;15296057;19;20016;-79
2022/11/15 12:16:41;;;;;;;2.13;0.93;;;;;;;13.53;100.00;97781.13;15296158;19;20022;-79
2022/11/15 12:22:12;;;;;;;2.20;0.80;;;;;;;13.66;100.00;97763.31;15294552;19;20066;-79
2022/11/15 12:27:45;;;;;;;2.87;0.90;;;;;;;13.83;100.00;97769.25;15285396;19;20089;-78
2022/11/15 12:33:33;;;;;;;1.65;1.00;;;;;;;13.98;100.00;97755.59;15301118;19;20284;-79
2022/11/15 12:39:06;;;;;;;2.97;1.00;;;;;;;14.18;100.00;97753.81;15313632;19;20096;-79
2022/11/15 12:45:01;;;;;;;2.10;1.00;;;;;;;14.44;100.00;97748.72;15307396;19;20331;-78
2022/11/15 12:51:04;;;;;;;1.50;0.90;;;;;;;14.81;100.00;97746.56;15311418;19;20025;-80
2022/11/15 12:56:29;;;;;;;1.00;0.90;;;;;;;15.01;100.00;97738.44;15305895;19;20015;-80
2022/11/15 13:02:10;;;;;;;1.50;0.93;;;;;;;15.12;100.00;97733.44;15306320;19;20021;-78
2022/11/15 13:08:02;;;;;;;2.13;1.00;;;;;;;15.01;100.00;97730.31;15305139;19;20077;-79
2022/11/15 13:13:55;;;;;;;1.13;0.80;;;;;;;14.89;100.00;97724.69;15308727;19;20294;-79
2022/11/15 13:19:25;;;;;;;1.00;0.90;;;;;;;14.82;100.00;97715.69;15315715;19;20319;-80
2022/11/15 13:24:53;;;;;;;1.67;0.80;;;;;;;14.75;100.00;97709.41;15308690;19;20026;-80
2022/11/15 13:30:23;;;;;;;1.00;0.90;;;;;;;14.61;100.00;97716.66;15309421;19;20015;-79
2022/11/15 13:35:50;;;;;;;1.50;0.90;;;;;;;14.51;100.00;97699.97;15304730;19;20078;-80
2022/11/15 13:41:24;;;;;;;1.42;0.80;;;;;;;14.39;100.00;97697.84;15311111;19;20047;-77
2022/11/15 13:46:51;;;;;;;1.30;0.73;;;;;;;14.32;100.00;97692.41;15310222;19;20022;-79
2022/11/15 13:52:17;;;;;;;1.15;0.80;;;;;;;14.28;100.00;97682.19;15316580;19;20015;-79
2022/11/15 13:57:51;;;;;;;1.67;0.80;;;;;;;14.53;100.00;97681.59;15356262;19;20018;-79
2022/11/15 14:03:21;;;;;;;1.08;0.80;;;;;;;14.65;100.00;97685.38;15326512;19;20011;-76
2022/11/15 14:08:45;;;;;;;1.70;0.88;;;;;;;14.57;100.00;97678.31;15349433;19;20025;-80
2022/11/15 14:14:18;;;;;;;2.03;0.90;;;;;;;14.46;100.00;97665.34;15315127;19;20026;-80
2022/11/15 14:19:46;;;;;;;1.70;0.88;;;;;;;14.52;100.00;97658.28;15303872;19;20596;-79
2022/11/15 14:25:21;;;;;;;0.90;0.80;;;;;;;14.53;100.00;97654.50;15304628;19;20010;-78
2022/11/15 14:30:50;;;;;;;3.40;1.00;;;;;;;14.45;100.00;97650.94;15303593;19;20027;-80
2022/11/15 14:36:16;;;;;;;2.13;0.90;;;;;;;14.28;100.00;97641.53;15304850;19;20018;-78
2022/11/15 14:41:45;;;;;;;1.45;0.90;;;;;;;14.06;100.00;97635.41;15303439;19;20019;-79
2022/11/15 14:47:12;;;;;;;1.33;0.90;;;;;;;13.70;100.00;97631.97;15303336;19;20007;-79
2022/11/15 14:52:39;;;;;;;1.80;0.75;;;;;;;13.38;100.00;97624.25;15295327;19;20034;-77
2022/11/15 14:58:07;;;;;;;2.75;1.00;;;;;;;13.15;100.00;97624.50;15287123;19;20106;-78
2022/11/15 15:03:35;;;;;;;2.10;0.90;;;;;;;12.90;100.00;97614.13;15293063;19;20481;-77
2022/11/15 15:09:00;;;;;;;0.93;0.80;;;;;;;12.68;100.00;97623.31;15294404;19;20757;-79
2022/11/15 15:14:27;;;;;;;1.48;0.98;;;;;;;12.49;100.00;97628.34;15290665;19;20017;-78
2022/11/15 15:19:54;;;;;;;1.98;1.10;;;;;;;12.28;100.00;97615.66;15296329;19;20014;-78
2022/11/15 15:25:31;;;;;;;2.50;0.98;;;;;;;12.13;100.00;97623.81;15300959;19;21067;-80
2022/11/15 15:30:57;;;;;;;1.27;1.00;;;;;;;11.99;100.00;97610.19;15315939;19;20520;-78
2022/11/15 15:36:27;;;;;;;1.27;0.98;;;;;;;11.79;100.00;97615.31;15304457;19;20014;-78
2022/11/15 15:41:53;;;;;;;1.07;0.97;;;;;;;11.63;100.00;97610.97;15307846;19;20053;-77
2022/11/15 15:47:21;;;;;;;1.58;0.90;;;;;;;11.49;100.00;97617.19;15330707;19;20290;-77
2022/11/15 15:52:48;;;;;;;2.35;1.40;;;;;;;11.36;100.00;97617.88;15307587;19;20032;-78
2022/11/15 15:58:14;;;;;;;1.30;1.20;;;;;;;11.28;100.00;97626.88;15319125;19;20006;-79
2022/11/15 16:03:39;;;;;;;2.50;1.30;;;;;;;11.22;100.00;97620.38;15305934;19;20014;-78
2022/11/15 16:09:07;;;;;;;1.35;1.00;;;;;;;11.14;100.00;97608.84;15315665;19;20022;-79
2022/11/15 16:14:34;;;;;;;1.65;1.00;;;;;;;11.09;100.00;97601.31;15306733;19;20015;-78
2022/11/15 16:19:59;;;;;;;1.17;0.90;;;;;;;11.06;100.00;97597.13;15309776;19;20816;-80
2022/11/15 16:25:27;;;;;;;1.52;1.23;;;;;;;11.03;100.00;97597.50;15305195;19;20078;-77
2022/11/15 16:30:51;;;;;;;3.33;1.02;;;;;;;11.01;100.00;97602.22;15306157;19;20022;-78
2022/11/15 16:36:22;;;;;;;1.73;1.15;;;;;;;10.95;100.00;97598.41;15301347;19;20014;-79
2022/11/15 16:41:50;;;;;;;2.03;1.10;;;;;;;10.93;100.00;97588.84;15307588;19;20026;-78
2022/11/15 16:47:21;;;;;;;1.20;1.10;;;;;;;10.94;100.00;97594.03;15304673;19;20017;-79
2022/11/15 16:52:47;;;;;;;2.15;1.33;;;;;;;10.96;100.00;97596.56;15311461;19;20022;-78
2022/11/15 16:58:15;;;;;;;3.08;1.45;;;;;;;10.95;100.00;97589.50;15314010;19;20027;-78
2022/11/15 17:03:39;;;;;;;1.70;1.60;;;;;;;10.94;100.00;97590.53;15309035;19;20019;-81
2022/11/15 17:09:04;;;;;;;2.22;1.65;;;;;;;10.92;100.00;97596.09;15304781;19;20023;-76
2022/11/15 17:14:32;;;;;;;1.83;1.45;;;;;;;10.91;100.00;97597.13;15297167;19;20006;-78
2022/11/15 17:19:58;;;;;;;2.15;1.48;;;;;;;10.87;100.00;97592.28;15305829;19;20011;-81
2022/11/15 17:25:24;;;;;;;1.77;1.60;;;;;;;10.84;100.00;97588.09;15308335;19;20027;-77
2022/11/15 17:30:53;;;;;;;1.65;1.50;;;;;;;10.81;100.00;97571.44;15308678;19;20158;-79
2022/11/15 17:36:33;;;;;;;2.00;1.45;;;;;;;10.82;100.00;97578.50;15308264;19;20082;-77
2022/11/15 17:41:58;;;;;;;2.25;1.50;;;;;;;10.80;100.00;97570.63;15362662;19;20043;-76
2022/11/15 17:47:25;;;;;;;2.83;1.85;;;;;;;10.76;100.00;97575.53;15296562;19;20037;-78
2022/11/15 17:52:50;;;;;;;2.35;2.15;;;;;;;10.75;100.00;97581.97;15291168;19;20074;-77
2022/11/15 17:58:17;;;;;;;2.17;1.83;;;;;;;10.73;100.00;97565.13;15291425;19;20042;-75
2022/11/15 18:03:51;;;;;;;1.40;1.30;;;;;;;10.71;100.00;97556.41;15286314;19;20097;-74
2022/11/15 18:09:29;;;;;;;3.88;1.42;;;;;;;10.63;100.00;97551.09;15295305;19;20469;-75
2022/11/15 18:14:53;;;;;;;1.98;1.30;;;;;;;10.59;100.00;97541.69;15286548;19;20372;-75
2022/11/15 18:20:20;;;;;;;2.35;1.38;;;;;;;10.54;100.00;97547.63;15293649;19;20499;-75
2022/11/15 18:25:45;;;;;;;2.50;1.50;;;;;;;10.46;100.00;97535.06;15259636;19;20015;-79
2022/11/15 18:31:16;;;;;;;1.95;1.58;;;;;;;10.42;100.00;97541.84;15290079;19;20010;-77
2022/11/15 18:36:43;;;;;;;1.58;1.30;;;;;;;10.38;100.00;97535.16;15285487;19;20013;-76
2022/11/15 18:42:08;;;;;;;1.60;1.30;;;;;;;10.37;100.00;97522.69;15290633;19;20014;-77
2022/11/15 18:47:32;;;;;;;1.95;1.30;;;;;;;10.37;100.00;97519.13;15285278;19;20588;-77
2022/11/15 18:53:00;;;;;;;2.03;1.50;;;;;;;10.38;100.00;97532.47;15287325;19;20663;-77
2022/11/15 18:58:24;;;;;;;3.05;1.80;;;;;;;10.38;100.00;97528.94;15284723;19;20011;-77
2022/11/15 19:03:50;;;;;;;3.78;2.40;;;;;;;10.35;100.00;97524.72;15293534;19;20017;-78
2022/11/15 19:09:14;;;;;;;2.60;1.80;;;;;;;10.33;100.00;97516.84;15287956;19;20006;-78
2022/11/15 19:14:39;;;;;;;3.35;1.80;;;;;;;10.31;100.00;97512.63;15282651;19;20024;-79
2022/11/15 19:20:04;;;;;;;2.10;1.90;;;;;;;10.31;100.00;97500.03;15287378;19;20021;-78
2022/11/15 19:25:31;;;;;;;3.33;2.60;;;;;;;10.29;100.00;97507.44;15279247;19;20026;-74
2022/11/15 19:31:06;;;;;;;2.53;1.85;;;;;;;10.28;100.00;97502.25;15279603;19;20345;-76
2022/11/15 19:36:34;;;;;;;2.15;1.70;;;;;;;10.25;100.00;97499.91;15282900;19;20337;-74
2022/11/15 19:42:01;;;;;;;3.30;2.00;;;;;;;10.22;100.00;97505.66;15281136;19;20484;-75
2022/11/15 19:47:32;;;;;;;2.33;1.70;;;;;;;10.16;100.00;97497.31;15282994;19;20022;-75
2022/11/15 19:52:56;;;;;;;3.35;1.90;;;;;;;10.16;100.00;97488.38;15283998;19;20029;-76
2022/11/15 19:58:26;;;;;;;2.40;1.40;;;;;;;10.18;100.00;97487.16;15284933;19;20356;-75
2022/11/15 20:03:53;;;;;;;2.70;1.60;;;;;;;10.14;100.00;97480.50;15276832;19;20010;-76
2022/11/15 20:09:19;;;;;;;2.90;1.70;;;;;;;10.13;100.00;97470.75;15287753;19;20006;-76
2022/11/15 20:14:47;;;;;;;3.33;1.73;;;;;;;10.10;100.00;97459.50;15310083;19;20039;-75
2022/11/15 20:20:13;;;;;;;2.58;1.90;;;;;;;10.05;100.00;97453.81;15292839;19;20018;-74
2022/11/15 20:25:38;;;;;;;2.97;1.80;;;;;;;10.00;100.00;97446.31;15289731;19;20085;-75
2022/11/15 20:31:06;;;;;;;2.50;1.50;;;;;;;9.99;100.00;97447.31;15286790;19;20018;-75
2022/11/15 20:36:32;;;;;;;1.65;1.50;;;;;;;9.94;100.00;97452.38;15278739;19;20097;-73
2022/11/15 20:41:57;;;;;;;2.03;1.40;;;;;;;9.91;100.00;97447.41;15282828;19;20340;-73
2022/11/15 20:47:24;;;;;;;2.30;1.48;;;;;;;9.88;100.00;97440.50;15276319;19;20054;-73
2022/11/15 20:52:55;;;;;;;2.15;1.50;;;;;;;9.84;100.00;97426.59;15286937;19;20024;-74
2022/11/15 20:58:22;;;;;;;;;;;;;;;9.80;100.00;97425.28;15300993;19;20074;-74
2022/11/15 21:03:49;;;;;;;3.40;1.50;;;;;;;9.79;100.00;97418.25;15300085;19;19948;-74
2022/11/15 21:14:53;;;;;;;2.60;1.80;;;;;;;9.70;100.00;97413.94;15339874;19;20492;-73
2022/11/15 21:20:21;;;;;;;1.48;1.35;;;;;;;9.66;100.00;97407.25;15296713;19;20485;-74
2022/11/15 21:25:45;;;;;;;2.03;1.40;;;;;;;9.63;100.00;97416.53;15288503;19;20447;-74
2022/11/15 21:31:10;;;;;;;3.15;1.70;;;;;;;9.62;100.00;97400.56;15295603;19;20616;-75
2022/11/15 21:36:38;;;;;;;2.15;1.45;;;;;;;9.60;100.00;97397.19;15288431;19;20081;-75
2022/11/15 21:42:03;;;;;;;1.92;1.42;;;;;;;9.61;100.00;97385.44;15296245;19;20094;-75
2022/11/15 21:47:27;;;;;;;1.88;1.40;;;;;;;9.61;100.00;97394.34;15290203;19;20006;-76
2022/11/15 21:52:54;;;;;;;2.10;1.50;;;;;;;9.61;100.00;97382.75;15292918;19;20025;-76
2022/11/15 21:58:19;;;;;;;1.42;1.30;;;;;;;9.60;100.00;97375.69;15294122;19;20015;-75
2022/11/15 22:03:44;;;;;;;1.27;1.17;;;;;;;9.61;100.00;97380.91;15289310;19;20555;-74
2022/11/15 22:09:19;;;;;;;2.28;1.23;;;;;;;9.64;100.00;97372.44;15288946;19;20011;-75
2022/11/15 22:14:44;;;;;;;2.83;1.38;;;;;;;9.69;100.00;97369.25;15288096;19;20452;-75
2022/11/15 22:20:08;;;;;;;2.15;1.50;;;;;;;9.69;100.00;97363.88;15290680;19;20011;-75
2022/11/15 22:25:56;;;;;;;3.58;1.50;;;;;;;9.68;100.00;97356.81;15285689;19;20034;-73
2022/11/15 22:31:21;;;;;;;2.42;1.30;;;;;;;9.66;100.00;97353.47;15287515;19;20006;-74
2022/11/15 22:36:46;;;;;;;3.05;1.60;;;;;;;9.63;100.00;97348.44;15283929;19;20086;-74
2022/11/15 22:42:33;;;;;;;2.45;1.55;;;;;;;9.61;100.00;97335.19;15281257;19;20021;-75
2022/11/15 22:47:59;;;;;;;2.45;1.42;;;;;;;9.60;100.00;97324.59;15280962;19;20022;-76
2022/11/15 22:53:23;;;;;;;3.00;1.50;;;;;;;9.57;100.00;97323.13;15285510;19;20031;-75
2022/11/15 22:58:50;;;;;;;2.75;1.50;;;;;;;9.54;100.00;97308.19;15286790;19;20025;-75
2022/11/15 23:04:15;;;;;;;2.13;1.33;;;;;;;9.52;100.00;97312.91;15281813;19;20017;-75
2022/11/15 23:09:40;;;;;;;1.50;1.35;;;;;;;9.50;100.00;97295.31;15286009;19;20003;-75
2022/11/15 23:15:12;;;;;;;2.45;1.60;;;;;;;9.47;100.00;97288.41;15274041;19;20010;-75
2022/11/15 23:20:37;;;;;;;1.60;1.50;;;;;;;9.45;100.00;97282.41;15286477;19;20035;-75
2022/11/15 23:26:06;;;;;;;2.58;1.40;;;;;;;9.43;100.00;97262.94;15281777;19;20038;-75
2022/11/15 23:37:21;;;;;;;2.20;1.40;;;;;;;9.39;100.00;97261.63;15280699;19;20017;-74
2022/11/15 23:42:46;;;;;;;1.35;1.20;;;;;;;9.38;100.00;97265.31;15286484;19;20025;-75
2022/11/15 23:48:14;;;;;;;2.47;1.50;;;;;;;9.35;100.00;97252.28;15281191;19;20006;-75
2022/11/15 23:53:39;;;;;;;2.53;1.60;;;;;;;9.34;100.00;97245.22;15284956;19;20022;-74
2022/11/15 23:59:03;;;;;;;2.03;1.48;;;;;;;9.34;100.00;97242.53;15285015;19;20015;-75
